Time;durP1;ratioP1;P1;durP2;ratioP2;P2;SDS_P1;SDS_P2;PMS_P1;PMS_P2;Temp;Humidity;BMP_temperature;BMP_pressure;BME280_temperature;BME280_humidity;BME280_pressure;Samples;Min_cycle;Max_cycle;Signal;HPM_P1;HPM_P2
2023/10/09 00:00:35;;;;;;;16.42;8.80;;;;;;;;;;6273743;22;20011;-42
2023/10/09 00:03:03;;;;;;;15.98;8.68;;;;;;;;;;6271346;22;20015;-43
2023/10/09 00:05:45;;;;;;;18.15;9.80;;;;;;;;;;6280690;22;20019;-40
2023/10/09 00:08:16;;;;;;;19.73;10.32;;;;;;;;;;6238200;22;20022;-41
2023/10/09 00:10:52;;;;;;;17.77;8.67;;;;;;;;;;6247275;22;20168;-40
2023/10/09 00:13:27;;;;;;;18.65;9.70;;;;;;;;;;6244877;22;20099;-40
2023/10/09 00:16:00;;;;;;;18.80;10.18;;;;;;;;;;6240816;22;20450;-42
2023/10/09 00:18:33;;;;;;;17.90;10.50;;;;;;;;;;6238659;22;20019;-39
2023/10/09 00:21:12;;;;;;;16.38;10.15;;;;;;;;;;6249345;22;20026;-41
2023/10/09 00:23:41;;;;;;;19.50;10.43;;;;;;;;;;6234885;22;20039;-41
2023/10/09 00:26:10;;;;;;;19.05;9.60;;;;;;;;;;6243237;22;20055;-39
2023/10/09 00:28:42;;;;;;;20.30;10.00;;;;;;;;;;6233645;22;20146;-40
2023/10/09 00:31:14;;;;;;;16.88;9.98;;;;;;;;;;6245522;22;20011;-40
2023/10/09 00:33:44;;;;;;;22.67;11.02;;;;;;;;;;6243369;22;20022;-40
2023/10/09 00:36:18;;;;;;;21.10;10.93;;;;;;;;;;6239353;22;20022;-40
2023/10/09 00:38:51;;;;;;;17.63;9.63;;;;;;;;;;6220770;22;20051;-40
2023/10/09 00:41:22;;;;;;;17.75;9.65;;;;;;;;;;6236868;22;20785;-41
2023/10/09 00:43:50;;;;;;;18.95;9.52;;;;;;;;;;6241876;22;20038;-40
2023/10/09 00:46:24;;;;;;;17.90;10.50;;;;;;;;;;6236627;22;20023;-40
2023/10/09 00:48:55;;;;;;;20.93;10.67;;;;;;;;;;6248566;22;20205;-40
2023/10/09 00:51:26;;;;;;;23.75;10.95;;;;;;;;;;6243245;22;20043;-40
2023/10/09 00:53:55;;;;;;;18.05;10.05;;;;;;;;;;6235285;22;20446;-43
2023/10/09 00:56:38;;;;;;;17.52;10.02;;;;;;;;;;6239961;22;20103;-40
2023/10/09 00:59:14;;;;;;;23.45;10.82;;;;;;;;;;6246131;22;20085;-40
2023/10/09 01:01:48;;;;;;;20.17;10.57;;;;;;;;;;6237269;22;20012;-40
2023/10/09 01:04:17;;;;;;;17.95;10.65;;;;;;;;;;6243934;22;20063;-42
2023/10/09 01:06:53;;;;;;;21.30;10.65;;;;;;;;;;6254572;22;20090;-40
2023/10/09 01:09:23;;;;;;;25.48;11.15;;;;;;;;;;6271301;22;20081;-40
2023/10/09 01:12:03;;;;;;;21.20;11.68;;;;;;;;;;6265607;22;20030;-40
2023/10/09 01:14:35;;;;;;;23.20;10.87;;;;;;;;;;6272052;22;20019;-40
2023/10/09 01:17:07;;;;;;;22.17;11.05;;;;;;;;;;6279951;22;20015;-41
2023/10/09 01:19:34;;;;;;;19.58;10.50;;;;;;;;;;6264663;22;20076;-40
2023/10/09 01:22:12;;;;;;;21.27;11.48;;;;;;;;;;6259123;22;20019;-42
2023/10/09 01:24:43;;;;;;;21.13;11.20;;;;;;;;;;6272024;22;20341;-41
2023/10/09 01:27:14;;;;;;;21.23;11.80;;;;;;;;;;6276613;22;20345;-40
2023/10/09 01:29:45;;;;;;;18.30;10.95;;;;;;;;;;6247658;22;20042;-40
2023/10/09 01:32:19;;;;;;;18.70;10.23;;;;;;;;;;6269836;22;20011;-40
2023/10/09 01:34:50;;;;;;;21.23;11.82;;;;;;;;;;6246018;22;20439;-40
2023/10/09 01:37:22;;;;;;;20.98;11.07;;;;;;;;;;6269689;22;20015;-40
2023/10/09 01:39:52;;;;;;;20.03;11.63;;;;;;;;;;6278179;22;20026;-40
2023/10/09 01:42:27;;;;;;;20.42;11.00;;;;;;;;;;6276283;22;20031;-40
2023/10/09 01:44:58;;;;;;;19.90;11.48;;;;;;;;;;6274401;22;20015;-40
2023/10/09 01:47:31;;;;;;;18.40;11.07;;;;;;;;;;6271685;22;20011;-40
2023/10/09 01:50:05;;;;;;;19.77;10.48;;;;;;;;;;6282038;22;20103;-40
2023/10/09 01:52:35;;;;;;;19.90;11.07;;;;;;;;;;6275721;22;20384;-40
2023/10/09 01:55:27;;;;;;;20.58;11.60;;;;;;;;;;6275362;22;20458;-40
2023/10/09 01:57:54;;;;;;;19.13;10.55;;;;;;;;;;6272918;22;20022;-42
2023/10/09 02:00:29;;;;;;;22.02;11.10;;;;;;;;;;6282252;22;20106;-40
2023/10/09 02:03:02;;;;;;;19.52;10.68;;;;;;;;;;6269677;22;20468;-40
2023/10/09 02:05:33;;;;;;;19.80;11.53;;;;;;;;;;6283452;22;20015;-40
2023/10/09 02:08:05;;;;;;;19.65;10.73;;;;;;;;;;6277893;22;20311;-40
2023/10/09 02:10:37;;;;;;;21.77;11.18;;;;;;;;;;6287335;22;20026;-42
2023/10/09 02:13:09;;;;;;;23.17;11.15;;;;;;;;;;6272889;22;20011;-40
2023/10/09 02:15:45;;;;;;;21.25;11.25;;;;;;;;;;6275260;22;20441;-40
2023/10/09 02:18:18;;;;;;;18.83;10.53;;;;;;;;;;6270970;22;20015;-43
2023/10/09 02:20:47;;;;;;;19.42;10.13;;;;;;;;;;6283511;22;20050;-40
2023/10/09 02:23:17;;;;;;;18.63;10.07;;;;;;;;;;6270167;22;20046;-40
2023/10/09 02:25:47;;;;;;;19.35;10.82;;;;;;;;;;6285561;22;20015;-41
2023/10/09 02:28:18;;;;;;;20.48;10.80;;;;;;;;;;6270639;22;20015;-40
2023/10/09 02:30:47;;;;;;;21.47;10.90;;;;;;;;;;6282408;22;20011;-40
2023/10/09 02:33:27;;;;;;;20.90;10.93;;;;;;;;;;6280742;22;20410;-40
2023/10/09 02:35:59;;;;;;;19.52;10.32;;;;;;;;;;6268266;22;20011;-40
2023/10/09 02:38:27;;;;;;;19.08;10.13;;;;;;;;;;6282495;22;20016;-40
2023/10/09 02:41:18;;;;;;;20.13;10.93;;;;;;;;;;6272412;22;20018;-40
2023/10/09 02:43:50;;;;;;;22.37;10.00;;;;;;;;;;6280154;22;20226;-40
2023/10/09 02:46:20;;;;;;;21.92;10.68;;;;;;;;;;6280623;22;20026;-40
2023/10/09 02:48:50;;;;;;;18.80;9.52;;;;;;;;;;6269689;22;20015;-41
2023/10/09 02:51:41;;;;;;;18.95;9.35;;;;;;;;;;6227083;22;20026;-40
2023/10/09 02:54:18;;;;;;;20.40;9.63;;;;;;;;;;6285375;22;20397;-40
2023/10/09 02:56:54;;;;;;;19.70;8.50;;;;;;;;;;6278161;22;20077;-40
2023/10/09 02:59:23;;;;;;;17.25;9.70;;;;;;;;;;6271130;22;20570;-39
2023/10/09 03:01:52;;;;;;;16.83;9.55;;;;;;;;;;6282626;22;20019;-40
2023/10/09 03:04:20;;;;;;;17.08;9.35;;;;;;;;;;6278020;22;20422;-40
2023/10/09 03:06:53;;;;;;;21.38;9.90;;;;;;;;;;6276494;22;20025;-40
2023/10/09 03:09:26;;;;;;;17.17;9.30;;;;;;;;;;6257426;22;20034;-40
2023/10/09 03:12:00;;;;;;;15.75;8.90;;;;;;;;;;6273314;22;20023;-41
2023/10/09 03:14:28;;;;;;;19.00;8.98;;;;;;;;;;6274391;22;20073;-40
2023/10/09 03:16:57;;;;;;;18.00;8.77;;;;;;;;;;6281919;22;20011;-40
2023/10/09 03:19:26;;;;;;;16.02;7.60;;;;;;;;;;6259507;22;20569;-40
2023/10/09 03:21:53;;;;;;;15.83;8.47;;;;;;;;;;6287483;22;20322;-40
2023/10/09 03:24:22;;;;;;;17.30;8.18;;;;;;;;;;6273711;22;20104;-40
2023/10/09 03:26:50;;;;;;;14.93;8.05;;;;;;;;;;6277051;22;20039;-41
2023/10/09 03:29:19;;;;;;;16.67;9.20;;;;;;;;;;6274924;22;20021;-40
2023/10/09 03:31:50;;;;;;;17.17;8.38;;;;;;;;;;6279132;22;20279;-40
2023/10/09 03:34:18;;;;;;;17.40;9.13;;;;;;;;;;6271417;22;20015;-40
2023/10/09 03:36:47;;;;;;;18.60;9.25;;;;;;;;;;6280430;22;20019;-40
2023/10/09 03:39:34;;;;;;;18.25;8.10;;;;;;;;;;6271919;22;20399;-40
2023/10/09 03:42:04;;;;;;;16.83;8.18;;;;;;;;;;6279840;22;20026;-40
2023/10/09 03:44:40;;;;;;;14.98;8.13;;;;;;;;;;6272032;22;20022;-40
2023/10/09 03:47:16;;;;;;;17.87;8.40;;;;;;;;;;6266051;22;20019;-40
2023/10/09 03:49:45;;;;;;;17.38;8.77;;;;;;;;;;6283216;22;20025;-40
2023/10/09 03:52:17;;;;;;;19.52;8.75;;;;;;;;;;6277329;22;20011;-40
2023/10/09 03:54:46;;;;;;;17.48;8.45;;;;;;;;;;6258478;22;20034;-40
2023/10/09 03:57:18;;;;;;;18.05;9.07;;;;;;;;;;6283323;22;20091;-40
2023/10/09 03:59:47;;;;;;;17.80;8.47;;;;;;;;;;6280751;22;20066;-40
2023/10/09 04:02:16;;;;;;;14.88;8.18;;;;;;;;;;6278188;22;20349;-39
2023/10/09 04:04:46;;;;;;;18.88;8.88;;;;;;;;;;6277672;22;20015;-40
2023/10/09 04:07:16;;;;;;;18.13;8.95;;;;;;;;;;6266841;22;20018;-40
2023/10/09 04:09:47;;;;;;;16.52;8.13;;;;;;;;;;6277955;22;20050;-40
2023/10/09 04:12:24;;;;;;;17.63;9.43;;;;;;;;;;6275805;22;20086;-40
2023/10/09 04:14:57;;;;;;;17.58;8.88;;;;;;;;;;6283022;22;20142;-41
2023/10/09 04:17:34;;;;;;;16.05;9.40;;;;;;;;;;6245736;22;20402;-42
2023/10/09 04:21:08;;;;;;;17.10;8.98;;;;;;;;;;6274049;22;20019;-41
2023/10/09 04:23:16;;;;;;;17.50;9.45;;;;;;;;;;6278366;22;20015;-40
2023/10/09 04:25:45;;;;;;;20.20;9.43;;;;;;;;;;6275829;22;20015;-40
2023/10/09 04:28:18;;;;;;;20.38;9.38;;;;;;;;;;6274603;22;20016;-40
2023/10/09 04:30:53;;;;;;;16.92;8.98;;;;;;;;;;6272036;22;20072;-41
2023/10/09 04:33:42;;;;;;;19.60;9.82;;;;;;;;;;6285760;22;20026;-40
2023/10/09 04:36:21;;;;;;;18.92;9.23;;;;;;;;;;6278911;22;20114;-40
2023/10/09 04:39:16;;;;;;;15.43;9.37;;;;;;;;;;6268080;22;20039;-40
2023/10/09 04:41:59;;;;;;;17.83;10.00;;;;;;;;;;6249949;22;20019;-40
2023/10/09 04:44:35;;;;;;;23.13;10.30;;;;;;;;;;6274721;22;20041;-40
2023/10/09 04:47:25;;;;;;;20.35;9.35;;;;;;;;;;6274365;22;20011;-40
2023/10/09 04:50:02;;;;;;;20.60;10.00;;;;;;;;;;6261255;22;20019;-40
2023/10/09 04:52:51;;;;;;;19.90;10.40;;;;;;;;;;6266766;22;20015;-39
2023/10/09 04:55:24;;;;;;;22.70;10.75;;;;;;;;;;6277047;22;20019;-40
2023/10/09 04:58:08;;;;;;;22.33;11.80;;;;;;;;;;6265025;22;20076;-40
2023/10/09 05:01:03;;;;;;;19.48;11.23;;;;;;;;;;6273884;22;20042;-40
2023/10/09 05:03:43;;;;;;;21.95;11.25;;;;;;;;;;6280306;22;20018;-40
2023/10/09 05:09:07;;;;;;;23.40;11.77;;;;;;;;;;6268361;22;20291;-39
2023/10/09 05:11:52;;;;;;;23.55;12.02;;;;;;;;;;6274396;22;20027;-40
2023/10/09 05:14:32;;;;;;;17.90;11.05;;;;;;;;;;6271022;22;20025;-40
2023/10/09 05:17:09;;;;;;;20.75;11.07;;;;;;;;;;6261011;22;20616;-40
2023/10/09 05:19:54;;;;;;;25.33;12.13;;;;;;;;;;6274328;22;20026;-40
2023/10/09 05:22:36;;;;;;;19.98;11.13;;;;;;;;;;6270924;22;20030;-42
2023/10/09 05:25:15;;;;;;;23.40;11.80;;;;;;;;;;6267280;22;20015;-40
2023/10/09 05:27:45;;;;;;;22.48;11.98;;;;;;;;;;6275803;22;20094;-40
2023/10/09 05:30:25;;;;;;;22.38;11.63;;;;;;;;;;6259254;22;20023;-40
2023/10/09 05:33:27;;;;;;;21.77;11.43;;;;;;;;;;6277135;22;20406;-44
2023/10/09 05:36:05;;;;;;;22.00;12.20;;;;;;;;;;6263450;22;20011;-40
2023/10/09 05:38:35;;;;;;;23.73;12.52;;;;;;;;;;6275152;22;20025;-40
2023/10/09 05:46:36;;;;;;;24.97;12.67;;;;;;;;;;6263796;22;20011;-41
2023/10/09 05:49:19;;;;;;;20.23;12.30;;;;;;;;;;6273907;22;20061;-40
2023/10/09 05:52:27;;;;;;;23.33;11.25;;;;;;;;;;6266139;22;20018;-40
2023/10/09 05:55:20;;;;;;;27.55;13.00;;;;;;;;;;6266468;22;20018;-42
2023/10/09 06:03:26;;;;;;;23.88;12.82;;;;;;;;;;6269025;22;20064;-41
2023/10/09 06:06:03;;;;;;;26.00;13.75;;;;;;;;;;6267342;22;20091;-40
2023/10/09 06:11:39;;;;;;;25.77;13.25;;;;;;;;;;6276383;22;20041;-39
2023/10/09 06:14:12;;;;;;;28.97;14.17;;;;;;;;;;6277663;22;20466;-40
2023/10/09 06:16:59;;;;;;;26.10;13.63;;;;;;;;;;6267871;22;20011;-40
2023/10/09 06:19:27;;;;;;;24.67;13.38;;;;;;;;;;6272453;22;20025;-39
2023/10/09 06:24:42;;;;;;;28.63;13.23;;;;;;;;;;6267158;22;20678;-41
2023/10/09 06:27:24;;;;;;;26.97;13.57;;;;;;;;;;6276273;22;20012;-40
2023/10/09 06:30:13;;;;;;;27.55;14.43;;;;;;;;;;6274155;22;20518;-40
2023/10/09 06:32:49;;;;;;;26.55;14.05;;;;;;;;;;6272104;22;20015;-40
2023/10/09 06:35:18;;;;;;;23.33;13.70;;;;;;;;;;6258339;22;20019;-40
2023/10/09 06:43:29;;;;;;;26.27;14.50;;;;;;;;;;6245996;22;20015;-40
2023/10/09 06:46:37;;;;;;;28.70;14.45;;;;;;;;;;6280032;22;20042;-40
2023/10/09 06:48:55;;;;;;;30.35;15.40;;;;;;;;;;6273778;22;20008;-40
2023/10/09 06:51:43;;;;;;;32.10;15.27;;;;;;;;;;6275405;22;20030;-40
2023/10/09 06:54:14;;;;;;;29.77;14.20;;;;;;;;;;6271801;22;20023;-40
2023/10/09 06:59:41;;;;;;;34.70;16.05;;;;;;;;;;6276805;22;20038;-40
2023/10/09 07:02:26;;;;;;;44.45;16.77;;;;;;;;;;6278462;22;20041;-40
2023/10/09 07:04:56;;;;;;;34.13;16.08;;;;;;;;;;6269381;22;20477;-40
2023/10/09 07:07:24;;;;;;;38.23;16.77;;;;;;;;;;6279493;22;20096;-40
2023/10/09 07:12:44;;;;;;;39.38;16.42;;;;;;;;;;6224657;22;20433;-41
2023/10/09 07:18:18;;;;;;;37.30;16.27;;;;;;;;;;6268466;22;20434;-40
2023/10/09 07:20:58;;;;;;;44.83;17.17;;;;;;;;;;6265889;22;20073;-39
2023/10/09 07:23:32;;;;;;;43.95;16.85;;;;;;;;;;6267291;22;20019;-40
2023/10/09 07:26:17;;;;;;;49.42;18.70;;;;;;;;;;6270755;22;20019;-41
2023/10/09 07:28:49;;;;;;;45.47;18.05;;;;;;;;;;6271728;22;20022;-40
2023/10/09 07:31:24;;;;;;;49.70;18.27;;;;;;;;;;6268901;22;20025;-40
2023/10/09 07:33:56;;;;;;;58.30;19.60;;;;;;;;;;6269215;22;20549;-40
2023/10/09 07:36:34;;;;;;;57.65;21.00;;;;;;;;;;6276372;22;20015;-40
2023/10/09 07:39:12;;;;;;;66.25;21.25;;;;;;;;;;6259610;22;20297;-41
2023/10/09 07:41:45;;;;;;;69.03;21.52;;;;;;;;;;6281448;22;20026;-40
2023/10/09 07:44:36;;;;;;;74.15;21.77;;;;;;;;;;6248040;22;20395;-45
2023/10/09 07:49:54;;;;;;;73.68;23.75;;;;;;;;;;6262808;22;20045;-40
2023/10/09 07:52:22;;;;;;;72.00;22.23;;;;;;;;;;6262403;22;20060;-40
2023/10/09 07:55:02;;;;;;;77.22;23.70;;;;;;;;;;6263003;22;20095;-41
2023/10/09 07:57:38;;;;;;;77.38;22.70;;;;;;;;;;6268104;22;20019;-40
2023/10/09 08:00:35;;;;;;;78.87;24.80;;;;;;;;;;6273830;22;20076;-40
2023/10/09 08:03:09;;;;;;;81.03;22.95;;;;;;;;;;6272087;22;20030;-40
2023/10/09 08:05:44;;;;;;;77.60;22.95;;;;;;;;;;6265316;22;20019;-40
2023/10/09 08:09:16;;;;;;;77.97;22.75;;;;;;;;;;6273985;22;20450;-39
2023/10/09 08:11:59;;;;;;;76.05;22.90;;;;;;;;;;6256209;22;20019;-41
2023/10/09 08:14:42;;;;;;;73.33;22.73;;;;;;;;;;6256870;22;20015;-40
2023/10/09 08:17:15;;;;;;;79.80;24.75;;;;;;;;;;6248397;22;20015;-39
2023/10/09 08:19:57;;;;;;;80.03;25.25;;;;;;;;;;6240757;22;20026;-40
2023/10/09 08:22:42;;;;;;;77.38;25.20;;;;;;;;;;6241210;22;20030;-40
2023/10/09 08:25:27;;;;;;;72.63;23.20;;;;;;;;;;6243681;22;20081;-41
2023/10/09 08:27:56;;;;;;;79.60;24.87;;;;;;;;;;6245753;22;20023;-40
2023/10/09 08:30:50;;;;;;;79.50;24.67;;;;;;;;;;6251347;22;20261;-40
2023/10/09 08:36:28;;;;;;;74.70;24.77;;;;;;;;;;6251865;22;20015;-41
2023/10/09 08:39:08;;;;;;;81.90;26.30;;;;;;;;;;6181166;22;20011;-41
2023/10/09 08:41:37;;;;;;;85.17;25.50;;;;;;;;;;6257565;22;20027;-39
2023/10/09 08:44:05;;;;;;;75.75;23.83;;;;;;;;;;6241882;22;20011;-40
2023/10/09 08:46:33;;;;;;;83.00;26.85;;;;;;;;;;6246296;22;20760;-39
2023/10/09 08:49:05;;;;;;;75.30;24.52;;;;;;;;;;6236666;22;20252;-39
2023/10/09 08:51:35;;;;;;;86.57;25.48;;;;;;;;;;6251957;22;20019;-39
2023/10/09 08:54:04;;;;;;;73.80;24.23;;;;;;;;;;6215049;22;20285;-41
2023/10/09 08:56:32;;;;;;;76.90;24.45;;;;;;;;;;6247370;22;20016;-39
2023/10/09 08:59:01;;;;;;;77.38;23.00;;;;;;;;;;6218668;22;20058;-40
2023/10/09 09:01:32;;;;;;;76.53;23.98;;;;;;;;;;6234348;22;20511;-40
2023/10/09 09:04:02;;;;;;;67.97;23.05;;;;;;;;;;6242615;22;20045;-41
2023/10/09 09:06:41;;;;;;;75.63;23.60;;;;;;;;;;6248745;22;20405;-39
2023/10/09 09:09:15;;;;;;;69.22;22.52;;;;;;;;;;6243863;22;20015;-39
2023/10/09 09:11:52;;;;;;;61.83;21.52;;;;;;;;;;6245894;22;20361;-39
2023/10/09 09:14:21;;;;;;;58.10;21.55;;;;;;;;;;6267720;22;20069;-39
2023/10/09 09:16:49;;;;;;;63.33;22.35;;;;;;;;;;6264307;22;20011;-40
2023/10/09 09:19:20;;;;;;;58.73;22.60;;;;;;;;;;6248853;22;20028;-42
2023/10/09 09:21:54;;;;;;;60.83;21.92;;;;;;;;;;6269457;22;20019;-39
2023/10/09 09:24:31;;;;;;;61.60;22.42;;;;;;;;;;6246719;22;20669;-40
2023/10/09 09:27:09;;;;;;;62.80;22.90;;;;;;;;;;6272306;22;20339;-39
2023/10/09 09:29:41;;;;;;;53.00;19.77;;;;;;;;;;6258983;22;20026;-40
2023/10/09 09:32:18;;;;;;;58.03;22.17;;;;;;;;;;6259019;22;20064;-41
2023/10/09 09:34:48;;;;;;;59.90;22.45;;;;;;;;;;6268317;22;20011;-39
2023/10/09 09:37:28;;;;;;;59.03;22.13;;;;;;;;;;6263108;22;20599;-39
2023/10/09 09:39:58;;;;;;;54.00;21.10;;;;;;;;;;6269127;22;20016;-40
2023/10/09 09:42:27;;;;;;;54.78;22.23;;;;;;;;;;6263663;22;20019;-40
2023/10/09 09:44:57;;;;;;;56.00;23.17;;;;;;;;;;6268927;22;20019;-42
2023/10/09 09:47:29;;;;;;;55.03;23.02;;;;;;;;;;6243613;22;20763;-40
2023/10/09 09:50:00;;;;;;;55.38;21.20;;;;;;;;;;6265626;22;20042;-39
2023/10/09 09:52:38;;;;;;;54.53;21.23;;;;;;;;;;6256556;22;20338;-39
2023/10/09 09:55:14;;;;;;;51.70;20.83;;;;;;;;;;6262258;22;20331;-40
2023/10/09 09:57:45;;;;;;;57.80;21.87;;;;;;;;;;6247849;22;20457;-40
2023/10/09 10:00:28;;;;;;;51.53;19.77;;;;;;;;;;6268288;22;20011;-40
2023/10/09 10:02:58;;;;;;;49.15;19.27;;;;;;;;;;6260655;22;20072;-40
2023/10/09 10:05:29;;;;;;;54.30;20.08;;;;;;;;;;6261323;22;20717;-40
2023/10/09 10:08:00;;;;;;;48.30;20.92;;;;;;;;;;6248799;22;20223;-40
2023/10/09 10:10:47;;;;;;;48.37;20.83;;;;;;;;;;6247037;22;20019;-40
2023/10/09 10:13:21;;;;;;;45.65;19.90;;;;;;;;;;6267794;22;20024;-42
2023/10/09 10:16:00;;;;;;;42.92;19.27;;;;;;;;;;6260072;22;20023;-39
2023/10/09 10:18:32;;;;;;;39.80;18.40;;;;;;;;;;6271356;22;20434;-39
2023/10/09 10:21:15;;;;;;;42.05;19.77;;;;;;;;;;6258414;22;20098;-40
2023/10/09 10:23:48;;;;;;;38.97;18.60;;;;;;;;;;6257708;22;20061;-44
2023/10/09 10:26:25;;;;;;;40.33;18.92;;;;;;;;;;6247140;22;20691;-40
2023/10/09 10:29:08;;;;;;;41.67;17.42;;;;;;;;;;6265010;22;20339;-39
2023/10/09 10:32:00;;;;;;;39.90;18.25;;;;;;;;;;6267441;22;20026;-40
2023/10/09 10:34:55;;;;;;;41.40;17.27;;;;;;;;;;6266053;22;20026;-42
2023/10/09 10:37:37;;;;;;;33.10;16.10;;;;;;;;;;6265757;22;20025;-40
2023/10/09 10:40:13;;;;;;;34.63;15.25;;;;;;;;;;6261980;22;20098;-40
2023/10/09 10:42:57;;;;;;;34.55;15.60;;;;;;;;;;6247753;22;20080;-41
2023/10/09 10:45:35;;;;;;;33.95;15.25;;;;;;;;;;6264697;22;20015;-40
2023/10/09 10:48:07;;;;;;;39.42;17.02;;;;;;;;;;6268421;22;20269;-40
2023/10/09 10:50:36;;;;;;;44.03;19.10;;;;;;;;;;6255605;22;20498;-40
2023/10/09 10:53:15;;;;;;;41.10;18.02;;;;;;;;;;6234925;22;20015;-41
2023/10/09 10:55:57;;;;;;;39.83;19.27;;;;;;;;;;6265895;22;20939;-40
2023/10/09 10:58:25;;;;;;;39.42;18.05;;;;;;;;;;6267253;22;20043;-40
2023/10/09 11:01:15;;;;;;;38.63;17.77;;;;;;;;;;6268036;22;20022;-40
2023/10/09 11:03:55;;;;;;;35.90;16.33;;;;;;;;;;6263804;22;20019;-40
2023/10/09 11:06:36;;;;;;;35.10;16.52;;;;;;;;;;6264637;22;20477;-40
2023/10/09 11:09:20;;;;;;;30.33;15.73;;;;;;;;;;6271933;22;20015;-40
2023/10/09 11:11:55;;;;;;;37.42;16.25;;;;;;;;;;6254754;22;20030;-40
2023/10/09 11:14:44;;;;;;;30.58;14.88;;;;;;;;;;6243676;22;20377;-42
2023/10/09 11:17:25;;;;;;;31.67;14.60;;;;;;;;;;6282928;22;20026;-40
2023/10/09 11:19:53;;;;;;;23.77;12.70;;;;;;;;;;6246408;22;20047;-40
2023/10/09 11:22:36;;;;;;;21.38;10.98;;;;;;;;;;6261117;22;20015;-40
2023/10/09 11:25:12;;;;;;;29.63;12.65;;;;;;;;;;6266102;22;20027;-41
2023/10/09 11:27:50;;;;;;;25.08;11.13;;;;;;;;;;6271093;22;20023;-41
2023/10/09 11:30:26;;;;;;;26.10;13.43;;;;;;;;;;6265093;22;20011;-40
2023/10/09 11:33:05;;;;;;;28.25;13.55;;;;;;;;;;6254206;22;20027;-40
2023/10/09 11:35:34;;;;;;;22.27;11.05;;;;;;;;;;6272695;22;20023;-40
2023/10/09 11:38:20;;;;;;;21.85;10.32;;;;;;;;;;6262119;22;20337;-40
2023/10/09 11:41:05;;;;;;;22.35;10.23;;;;;;;;;;6237000;22;20015;-40
2023/10/09 11:43:57;;;;;;;29.57;13.60;;;;;;;;;;6269979;22;20104;-40
2023/10/09 11:46:47;;;;;;;27.63;13.75;;;;;;;;;;6279910;22;20545;-40
2023/10/09 11:54:56;;;;;;;23.70;11.25;;;;;;;;;;6255440;22;20050;-40
2023/10/09 11:57:30;;;;;;;28.70;14.67;;;;;;;;;;6263908;22;20015;-40
2023/10/09 12:00:06;;;;;;;28.55;15.25;;;;;;;;;;6241283;22;20068;-40
2023/10/09 12:02:43;;;;;;;29.48;14.75;;;;;;;;;;6269410;22;20457;-40
2023/10/09 12:05:16;;;;;;;28.75;13.20;;;;;;;;;;6262957;22;20023;-42
2023/10/09 12:07:45;;;;;;;31.20;15.75;;;;;;;;;;6262286;22;20021;-39
2023/10/09 12:10:24;;;;;;;28.87;14.70;;;;;;;;;;6258078;22;20025;-41
2023/10/09 12:12:52;;;;;;;23.83;12.40;;;;;;;;;;6268725;22;20015;-40
2023/10/09 12:15:21;;;;;;;30.08;14.93;;;;;;;;;;6269378;22;20023;-40
2023/10/09 12:17:49;;;;;;;29.92;14.00;;;;;;;;;;6253152;22;20023;-40
2023/10/09 12:20:30;;;;;;;26.33;13.30;;;;;;;;;;6259867;22;20090;-41
2023/10/09 12:22:58;;;;;;;22.00;11.37;;;;;;;;;;6271813;22;20020;-44
2023/10/09 12:25:31;;;;;;;22.75;11.68;;;;;;;;;;6266931;22;20102;-40
2023/10/09 12:28:01;;;;;;;19.58;11.35;;;;;;;;;;6273453;22;20019;-40
2023/10/09 12:30:39;;;;;;;22.05;11.02;;;;;;;;;;6273323;22;20465;-41
2023/10/09 12:33:09;;;;;;;23.40;11.98;;;;;;;;;;6245512;22;20072;-40
2023/10/09 12:35:37;;;;;;;22.47;11.23;;;;;;;;;;6260796;22;20468;-40
2023/10/09 12:38:08;;;;;;;27.77;10.70;;;;;;;;;;6261077;22;20059;-42
2023/10/09 12:40:36;;;;;;;21.20;9.48;;;;;;;;;;6262016;22;20401;-41
2023/10/09 12:43:15;;;;;;;17.00;8.85;;;;;;;;;;6258582;22;20031;-39
2023/10/09 12:45:45;;;;;;;20.00;9.77;;;;;;;;;;6265614;22;20018;-40
2023/10/09 12:48:14;;;;;;;17.60;8.60;;;;;;;;;;6266685;22;20412;-40
2023/10/09 12:50:44;;;;;;;16.20;8.27;;;;;;;;;;6266317;22;20342;-40
2023/10/09 12:53:17;;;;;;;17.33;8.32;;;;;;;;;;6263522;22;20019;-40
2023/10/09 12:55:47;;;;;;;20.50;9.38;;;;;;;;;;6270377;22;20504;-41
2023/10/09 12:58:18;;;;;;;13.48;6.43;;;;;;;;;;6260918;22;20050;-41
2023/10/09 13:00:49;;;;;;;14.20;7.03;;;;;;;;;;6272792;22;20034;-40
2023/10/09 13:03:32;;;;;;;14.57;7.82;;;;;;;;;;6256793;22;20576;-41
2023/10/09 13:06:03;;;;;;;21.13;8.00;;;;;;;;;;6247199;22;20029;-41
2023/10/09 13:08:39;;;;;;;17.83;8.25;;;;;;;;;;6255888;22;20058;-41
2023/10/09 13:11:10;;;;;;;17.50;9.18;;;;;;;;;;6272132;22;20015;-41
2023/10/09 13:13:43;;;;;;;15.53;7.83;;;;;;;;;;6262944;22;20019;-40
2023/10/09 13:16:13;;;;;;;17.38;8.32;;;;;;;;;;6257871;22;20019;-40
2023/10/09 13:18:49;;;;;;;16.02;8.15;;;;;;;;;;6269613;22;20023;-40
2023/10/09 13:21:18;;;;;;;17.35;8.55;;;;;;;;;;6263893;22;20102;-40
2023/10/09 13:23:47;;;;;;;17.10;7.30;;;;;;;;;;6272803;22;20011;-41
2023/10/09 13:26:27;;;;;;;13.90;7.93;;;;;;;;;;6252446;22;20015;-41
2023/10/09 13:29:02;;;;;;;15.27;7.63;;;;;;;;;;6261703;22;20031;-40
2023/10/09 13:31:33;;;;;;;17.83;8.75;;;;;;;;;;6267829;22;20012;-40
2023/10/09 13:34:06;;;;;;;13.60;7.82;;;;;;;;;;6204782;22;20780;-40
2023/10/09 13:36:34;;;;;;;15.48;8.52;;;;;;;;;;6256946;22;20019;-40
2023/10/09 13:39:20;;;;;;;14.50;6.93;;;;;;;;;;6262955;22;20480;-39
2023/10/09 13:41:48;;;;;;;17.55;7.90;;;;;;;;;;6252960;22;20069;-40
2023/10/09 13:44:16;;;;;;;15.73;8.27;;;;;;;;;;6218727;22;20102;-40
2023/10/09 13:46:46;;;;;;;16.25;8.75;;;;;;;;;;6273697;22;20011;-40
2023/10/09 13:49:14;;;;;;;21.40;8.50;;;;;;;;;;6258992;22;20147;-40
2023/10/09 13:51:44;;;;;;;13.80;8.00;;;;;;;;;;6233526;22;20023;-42
2023/10/09 13:54:19;;;;;;;12.70;6.63;;;;;;;;;;6271299;22;20015;-40
2023/10/09 13:56:47;;;;;;;17.67;9.40;;;;;;;;;;6256869;22;20015;-40
2023/10/09 13:59:20;;;;;;;15.65;8.00;;;;;;;;;;6275631;22;20486;-40
2023/10/09 14:01:49;;;;;;;17.63;8.65;;;;;;;;;;6257776;22;20456;-40
2023/10/09 14:04:19;;;;;;;15.83;9.23;;;;;;;;;;6242515;22;20432;-40
2023/10/09 14:06:47;;;;;;;12.80;7.50;;;;;;;;;;6245626;22;20018;-40
2023/10/09 14:12:06;;;;;;;11.52;5.90;;;;;;;;;;6263080;22;20035;-41
2023/10/09 14:14:37;;;;;;;15.25;7.43;;;;;;;;;;6235320;22;20019;-40
2023/10/09 14:17:11;;;;;;;16.17;8.73;;;;;;;;;;6268613;22;20015;-40
2023/10/09 14:19:40;;;;;;;15.35;7.45;;;;;;;;;;6262266;22;20072;-40
2023/10/09 14:22:08;;;;;;;18.17;7.55;;;;;;;;;;6267143;22;20046;-40
2023/10/09 14:24:38;;;;;;;12.23;6.47;;;;;;;;;;6259319;22;20383;-40
2023/10/09 14:27:07;;;;;;;12.23;5.25;;;;;;;;;;6271337;22;20094;-40
2023/10/09 14:29:37;;;;;;;13.23;6.40;;;;;;;;;;6261671;22;20022;-41
2023/10/09 14:32:07;;;;;;;10.95;3.75;;;;;;;;;;6246159;22;20015;-40
2023/10/09 14:34:46;;;;;;;13.70;5.82;;;;;;;;;;6260214;22;20184;-40
2023/10/09 14:37:15;;;;;;;13.15;5.93;;;;;;;;;;6257460;22;20026;-42
2023/10/09 14:39:48;;;;;;;15.35;6.88;;;;;;;;;;6275966;22;20015;-41
2023/10/09 14:42:15;;;;;;;12.70;6.43;;;;;;;;;;6264501;22;20459;-40
2023/10/09 14:44:45;;;;;;;11.30;6.10;;;;;;;;;;6271924;22;20015;-40
2023/10/09 14:47:14;;;;;;;12.27;5.70;;;;;;;;;;6252878;22;20105;-43
2023/10/09 14:49:46;;;;;;;13.23;6.57;;;;;;;;;;6275207;22;20061;-41
2023/10/09 14:52:21;;;;;;;14.52;5.38;;;;;;;;;;6270230;22;20015;-41
2023/10/09 14:54:50;;;;;;;11.73;5.20;;;;;;;;;;6252762;22;20023;-41
2023/10/09 14:57:18;;;;;;;17.15;6.40;;;;;;;;;;6271841;22;20015;-40
2023/10/09 14:59:46;;;;;;;15.43;6.80;;;;;;;;;;6270605;22;20434;-41
2023/10/09 15:02:16;;;;;;;12.75;5.30;;;;;;;;;;6269265;22;20039;-40
2023/10/09 15:04:46;;;;;;;11.85;5.90;;;;;;;;;;6272449;22;20032;-40
2023/10/09 15:07:15;;;;;;;13.63;5.50;;;;;;;;;;6257300;22;20438;-40
2023/10/09 15:10:05;;;;;;;10.40;5.70;;;;;;;;;;6267631;22;20394;-40
2023/10/09 15:12:39;;;;;;;17.33;5.22;;;;;;;;;;6273943;22;20069;-40
2023/10/09 15:15:11;;;;;;;14.05;5.35;;;;;;;;;;6254260;22;20019;-40
2023/10/09 15:17:40;;;;;;;13.57;5.80;;;;;;;;;;6272887;22;20022;-41
2023/10/09 15:20:13;;;;;;;16.10;5.83;;;;;;;;;;6235381;22;20015;-40
2023/10/09 15:22:41;;;;;;;12.27;5.75;;;;;;;;;;6266052;22;20050;-42
2023/10/09 15:25:14;;;;;;;12.38;6.00;;;;;;;;;;6255036;22;20019;-41
2023/10/09 15:27:43;;;;;;;12.30;5.90;;;;;;;;;;6273806;22;20026;-40
2023/10/09 15:30:13;;;;;;;10.85;5.22;;;;;;;;;;6245950;22;20007;-40
2023/10/09 15:32:42;;;;;;;14.10;5.20;;;;;;;;;;6246187;22;20030;-43
2023/10/09 15:35:13;;;;;;;12.90;5.55;;;;;;;;;;6237689;22;20091;-40
2023/10/09 15:37:42;;;;;;;13.65;6.05;;;;;;;;;;6267190;22;20529;-41
2023/10/09 15:40:13;;;;;;;10.57;5.07;;;;;;;;;;6262575;22;20330;-41
2023/10/09 15:42:42;;;;;;;14.27;6.40;;;;;;;;;;6271344;22;20223;-40
2023/10/09 15:45:11;;;;;;;12.70;5.47;;;;;;;;;;6266127;22;20085;-40
2023/10/09 15:47:39;;;;;;;13.02;5.32;;;;;;;;;;6266617;22;20022;-43
2023/10/09 15:50:11;;;;;;;12.02;5.88;;;;;;;;;;6268379;22;20099;-41
2023/10/09 15:52:40;;;;;;;13.85;5.05;;;;;;;;;;6275862;22;20030;-40